createdAt,value
2022-08-21T00:00:00.000Z,18.25
2022-08-21T00:15:00.000Z,18.33
2022-08-21T00:30:00.000Z,18.48
2022-08-21T00:45:00.000Z,18.27
2022-08-21T01:15:00.000Z,18.06
2022-08-21T01:15:00.000Z,18.08
2022-08-21T01:30:00.000Z,18.26
2022-08-21T01:45:00.000Z,18.14
2022-08-21T02:00:00.000Z,18.3
2022-08-21T02:15:00.000Z,18.3
2022-08-21T02:30:00.000Z,18.71
2022-08-21T02:45:00.000Z,18.88
2022-08-21T03:00:00.000Z,18.85
2022-08-21T03:15:00.000Z,19.01
2022-08-21T03:30:00.000Z,18.99
2022-08-21T03:45:00.000Z,18.9
2022-08-21T04:00:00.000Z,18.85
2022-08-21T04:15:00.000Z,18.89
2022-08-21T04:30:00.000Z,18.94
2022-08-21T04:45:00.000Z,19.04
2022-08-21T05:00:00.000Z,19.11
2022-08-21T05:15:00.000Z,19.21
2022-08-21T05:30:00.000Z,19.58
2022-08-21T05:45:00.000Z,19.64
2022-08-21T06:00:00.000Z,19.84
2022-08-21T06:15:00.000Z,20.09
2022-08-21T06:30:00.000Z,19.84
2022-08-21T06:45:00.000Z,19.95
2022-08-21T07:00:00.000Z,21.76
2022-08-21T07:15:00.000Z,22.67
2022-08-21T07:30:00.000Z,22.03
2022-08-21T07:45:00.000Z,24
2022-08-21T08:00:00.000Z,24.02
2022-08-21T08:15:00.000Z,25.27
2022-08-21T08:30:00.000Z,25.13
2022-08-21T08:45:00.000Z,24.7
2022-08-21T09:00:00.000Z,26.5
2022-08-21T09:15:00.000Z,28.6
2022-08-21T09:30:00.000Z,29.57
2022-08-21T09:45:00.000Z,29.27
2022-08-21T10:00:00.000Z,29.15
2022-08-21T10:15:00.000Z,27.49
2022-08-21T10:30:00.000Z,27.86
2022-08-21T10:45:00.000Z,28.53
2022-08-21T11:00:00.000Z,27.1
2022-08-21T11:15:00.000Z,27.31
2022-08-21T11:30:00.000Z,27.52
2022-08-21T11:45:00.000Z,26.42
2022-08-21T12:00:00.000Z,26.74
2022-08-21T12:15:00.000Z,26.66
2022-08-21T12:30:00.000Z,25.94
2022-08-21T12:45:00.000Z,25.03
2022-08-21T13:00:00.000Z,25.3
2022-08-21T13:15:00.000Z,26.5
2022-08-21T13:30:00.000Z,26.64
2022-08-21T13:45:00.000Z,26.23
2022-08-21T14:00:00.000Z,25.85
2022-08-21T14:15:00.000Z,26.06
2022-08-21T14:30:00.000Z,25.63
2022-08-21T14:45:00.000Z,25.65
2022-08-21T15:00:00.000Z,24.98
2022-08-21T15:15:00.000Z,25.42
2022-08-21T15:30:00.000Z,25.73
2022-08-21T15:45:00.000Z,26.22
2022-08-21T16:00:00.000Z,26.39
2022-08-21T16:15:00.000Z,26.19
2022-08-21T16:30:00.000Z,26.27
2022-08-21T16:45:00.000Z,25.85
2022-08-21T17:00:00.000Z,25.7
2022-08-21T17:15:00.000Z,25.53
2022-08-21T17:30:00.000Z,24.94
2022-08-21T17:45:00.000Z,24.15
2022-08-21T18:00:00.000Z,23.36
2022-08-21T18:15:00.000Z,22.83
2022-08-21T18:30:00.000Z,22.15
2022-08-21T18:45:00.000Z,21.99
2022-08-21T19:00:00.000Z,21.71
2022-08-21T19:15:00.000Z,21.28
2022-08-21T19:30:00.000Z,20.9
2022-08-21T19:45:00.000Z,20.73
2022-08-21T20:00:00.000Z,20.64
2022-08-21T20:15:00.000Z,20.42
2022-08-21T20:30:00.000Z,20.12
2022-08-21T20:45:00.000Z,19.98
2022-08-21T21:00:00.000Z,19.74
2022-08-21T21:15:00.000Z,19.23
2022-08-21T21:30:00.000Z,18.92
2022-08-21T21:45:00.000Z,18.59
2022-08-21T22:00:00.000Z,18.44
2022-08-21T22:15:00.000Z,18.38
2022-08-21T22:30:00.000Z,18.18
2022-08-21T22:45:00.000Z,18.09
2022-08-21T23:00:00.000Z,17.96
2022-08-21T23:15:00.000Z,17.75
2022-08-21T23:30:00.000Z,17.64
2022-08-21T23:45:00.000Z,17.51
